Chester Depot, Vermont
Current Conditions -  °F | °C
As of 9:54 PM on Saturday 20 Dec 2014 (Local Time) from KVSF Reporting Station
Overcast Overcast  
Wind Chill: 25°   Ceiling: 3500
Heat Index: 25°   Visibility: 8mi
Dew Point: 19°   Wind: 0mph
Humidity: 78%   Direction: NA
Pressure: 30.3"   Gusts: NA
Location:  43.36°N, 72.57°W
Report Text: KVSF 210254Z AUTO 00000KT 8SM OVC035 M04/M07 A3030 RMK AO2 SLP269 T10391072 50001 TSNO
Loading
Personal Weather Stations






























Interactive Weather Map New forecast layout! Learn more

10-Day Weather Forecast

Advertisements
Track Severe Weather on mobile